createdAt,value
2022-10-05T00:01:12.044Z,7.00
2022-10-05T00:03:38.375Z,5.00
2022-10-05T00:06:04.777Z,6.67
2022-10-05T00:08:31.099Z,6.00
2022-10-05T00:10:57.447Z,5.00
2022-10-05T00:13:23.781Z,3.00
2022-10-05T00:15:50.127Z,5.67
2022-10-05T00:18:16.463Z,7.00
2022-10-05T00:20:42.792Z,6.67
2022-10-05T00:23:09.155Z,6.33
2022-10-05T00:25:35.531Z,4.00
2022-10-05T00:28:01.925Z,4.00
2022-10-05T00:30:28.265Z,5.00
2022-10-05T00:32:59.336Z,4.67
2022-10-05T00:35:26.072Z,5.33
2022-10-05T00:37:52.432Z,4.00
2022-10-05T00:40:18.795Z,5.00
2022-10-05T00:42:45.124Z,4.67
2022-10-05T00:45:11.473Z,6.00
2022-10-05T00:47:37.857Z,5.00
2022-10-05T00:50:04.179Z,5.33
2022-10-05T00:52:30.495Z,5.33
2022-10-05T00:54:56.812Z,5.00
2022-10-05T00:57:23.143Z,5.00
2022-10-05T00:59:49.466Z,5.33
2022-10-05T01:02:15.815Z,5.00
2022-10-05T01:04:42.175Z,6.33
2022-10-05T01:07:08.519Z,6.00
2022-10-05T01:09:34.865Z,4.00
2022-10-05T01:12:01.193Z,4.00
2022-10-05T01:14:27.560Z,3.00
2022-10-05T01:16:53.942Z,4.67
2022-10-05T01:19:20.321Z,4.67
2022-10-05T01:21:46.655Z,5.33
2022-10-05T01:24:12.962Z,6.00
2022-10-05T01:26:40.166Z,4.00
2022-10-05T01:29:06.534Z,4.00
2022-10-05T01:31:33.035Z,3.67
2022-10-05T01:33:59.405Z,4.33
2022-10-05T01:36:25.749Z,4.00
2022-10-05T01:38:52.088Z,4.00
2022-10-05T01:41:18.420Z,4.67
2022-10-05T01:43:44.753Z,6.33
2022-10-05T01:46:11.155Z,5.00
2022-10-05T01:48:37.552Z,4.67
2022-10-05T01:51:03.899Z,4.33
2022-10-05T01:53:30.258Z,4.00
2022-10-05T01:55:56.601Z,5.00
2022-10-05T01:58:22.919Z,4.33
2022-10-05T02:00:49.298Z,6.00
2022-10-05T02:03:16.502Z,4.50
2022-10-05T02:05:42.843Z,5.00
2022-10-05T02:08:09.178Z,2.33
2022-10-05T02:10:37.525Z,4.67
2022-10-05T02:13:03.904Z,4.00
2022-10-05T02:15:30.275Z,3.67
2022-10-05T02:17:56.631Z,5.00
2022-10-05T02:20:22.960Z,5.00
2022-10-05T02:22:49.303Z,5.00
2022-10-05T02:25:15.612Z,6.00
2022-10-05T02:27:41.958Z,3.33
2022-10-05T02:30:11.557Z,5.00
2022-10-05T02:32:40.503Z,6.00
2022-10-05T02:35:06.852Z,4.00
2022-10-05T02:37:33.212Z,2.00
2022-10-05T02:39:59.522Z,5.00
2022-10-05T02:42:25.870Z,4.00
2022-10-05T02:44:52.223Z,4.00
2022-10-05T02:47:18.565Z,5.33
2022-10-05T02:49:44.909Z,4.33
2022-10-05T02:52:11.240Z,5.33
2022-10-05T02:54:37.583Z,5.67
2022-10-05T02:57:03.933Z,6.33
2022-10-05T02:59:30.268Z,4.33
2022-10-05T03:01:56.652Z,5.67
2022-10-05T03:04:23.017Z,2.00
2022-10-05T03:06:49.410Z,7.33
2022-10-05T03:09:15.754Z,4.00
2022-10-05T03:11:42.097Z,6.67
2022-10-05T03:14:08.442Z,4.00
2022-10-05T03:16:34.802Z,6.00
2022-10-05T03:19:01.138Z,4.00
2022-10-05T03:21:27.462Z,5.67
2022-10-05T03:23:53.803Z,5.00
2022-10-05T03:26:21.021Z,4.25
2022-10-05T03:28:47.342Z,5.67
2022-10-05T03:31:14.615Z,4.50
2022-10-05T03:33:40.975Z,5.00
2022-10-05T03:36:07.339Z,4.33
2022-10-05T03:38:33.740Z,7.00
2022-10-05T03:41:00.072Z,4.67
2022-10-05T03:43:26.413Z,4.67
2022-10-05T03:45:52.800Z,5.00
2022-10-05T03:48:19.163Z,4.00
2022-10-05T03:50:45.501Z,4.33
2022-10-05T03:53:12.710Z,4.00
2022-10-05T03:55:39.066Z,5.33
2022-10-05T03:58:05.426Z,7.00
2022-10-05T04:00:31.760Z,5.67
2022-10-05T04:02:58.153Z,4.33
2022-10-05T04:05:24.589Z,5.00
2022-10-05T04:07:50.932Z,6.00
2022-10-05T04:10:17.271Z,5.00
2022-10-05T04:12:43.585Z,5.67
2022-10-05T04:15:13.160Z,5.00
2022-10-05T04:17:42.828Z,4.67
2022-10-05T04:20:09.166Z,5.33
2022-10-05T04:22:35.543Z,5.67
2022-10-05T04:25:01.880Z,5.33
2022-10-05T04:27:28.210Z,7.33
2022-10-05T04:29:54.575Z,6.00
2022-10-05T04:32:20.911Z,6.00
2022-10-05T04:34:47.238Z,7.00
2022-10-05T04:37:13.548Z,8.00
2022-10-05T04:39:39.896Z,2.00
2022-10-05T04:42:06.230Z,5.00
2022-10-05T04:44:32.780Z,8.33
2022-10-05T04:46:59.151Z,8.00
2022-10-05T04:49:26.369Z,7.25
2022-10-05T04:51:52.721Z,7.67
2022-10-05T04:54:19.038Z,8.67
2022-10-05T04:56:45.692Z,8.67
2022-10-05T04:59:13.993Z,7.20
2022-10-05T05:01:40.469Z,10.00
2022-10-05T05:04:06.883Z,8.00
2022-10-05T05:06:34.118Z,9.75
2022-10-05T05:09:01.321Z,9.25
2022-10-05T05:11:27.698Z,9.00
2022-10-05T05:13:54.035Z,9.50
2022-10-05T05:16:21.277Z,7.50
2022-10-05T05:18:47.722Z,7.67
2022-10-05T05:21:14.154Z,11.00
2022-10-05T05:23:40.469Z,6.00
2022-10-05T05:26:06.858Z,7.00
2022-10-05T05:28:33.287Z,6.67
2022-10-05T05:30:59.677Z,6.67
2022-10-05T05:33:26.056Z,5.67
2022-10-05T05:35:52.405Z,8.00
2022-10-05T05:38:18.734Z,6.00
2022-10-05T05:40:45.101Z,8.33
2022-10-05T05:43:11.439Z,6.33
2022-10-05T05:45:37.826Z,6.33
2022-10-05T05:48:04.157Z,7.33
2022-10-05T05:50:31.379Z,10.50
2022-10-05T05:52:58.002Z,8.00
2022-10-05T05:55:29.756Z,6.00
2022-10-05T05:57:56.930Z,6.00
2022-10-05T06:00:24.164Z,7.50
2022-10-05T06:02:50.573Z,8.33
2022-10-05T06:05:17.166Z,6.33
2022-10-05T06:07:43.658Z,7.00
2022-10-05T06:10:10.242Z,6.00
2022-10-05T06:12:36.887Z,7.33
2022-10-05T06:15:04.372Z,5.75
2022-10-05T06:17:31.000Z,7.00
2022-10-05T06:20:01.112Z,6.00
2022-10-05T06:22:30.576Z,6.00
2022-10-05T06:24:57.032Z,6.67
2022-10-05T06:27:23.674Z,7.00
2022-10-05T06:29:50.324Z,8.00
2022-10-05T06:32:19.714Z,9.17
2022-10-05T06:34:47.298Z,11.25
2022-10-05T06:37:13.925Z,11.00
2022-10-05T06:39:40.442Z,11.00
2022-10-05T06:42:07.195Z,10.00
2022-10-05T06:44:33.893Z,12.00
2022-10-05T06:47:00.573Z,12.50
2022-10-05T06:49:27.287Z,11.50
2022-10-05T06:51:54.085Z,11.00
2022-10-05T06:54:20.723Z,10.50
2022-10-05T06:56:49.575Z,8.40
2022-10-05T06:59:19.052Z,12.67
2022-10-05T07:01:47.597Z,12.80
2022-10-05T07:04:15.122Z,14.00
2022-10-05T07:06:42.366Z,13.67
2022-10-05T07:09:10.657Z,13.20
2022-10-05T07:11:39.817Z,12.83
2022-10-05T07:14:06.288Z,12.50
2022-10-05T07:16:32.736Z,10.00
2022-10-05T07:18:59.173Z,12.00
2022-10-05T07:21:25.738Z,12.00
2022-10-05T07:23:54.031Z,12.60
2022-10-05T07:26:20.448Z,10.50
2022-10-05T07:28:46.853Z,9.00
2022-10-05T07:31:13.313Z,9.50
2022-10-05T07:33:39.726Z,9.00
2022-10-05T07:36:06.955Z,12.00
2022-10-05T07:38:36.235Z,10.00
2022-10-05T07:41:02.659Z,10.50
2022-10-05T07:43:35.924Z,12.00
2022-10-05T07:46:15.503Z,9.00
2022-10-05T07:48:41.854Z,5.00
2022-10-05T07:51:08.243Z,9.00
2022-10-05T07:53:34.586Z,7.33
2022-10-05T07:56:00.934Z,8.00
2022-10-05T07:58:28.128Z,11.00
2022-10-05T08:00:57.293Z,8.83
2022-10-05T08:03:24.519Z,8.00
2022-10-05T08:05:50.889Z,8.00
2022-10-05T08:08:19.746Z,9.25
2022-10-05T08:10:47.792Z,10.25
2022-10-05T08:13:15.011Z,8.00
2022-10-05T08:15:42.323Z,9.75
2022-10-05T08:18:08.755Z,10.50
2022-10-05T08:20:35.080Z,7.00
2022-10-05T08:23:02.317Z,9.50
2022-10-05T08:25:28.651Z,8.67
2022-10-05T08:27:55.044Z,8.33
2022-10-05T08:30:21.410Z,8.00
2022-10-05T08:32:47.727Z,5.33
2022-10-05T08:35:14.035Z,6.67
2022-10-05T08:37:40.395Z,6.00
2022-10-05T08:40:06.735Z,7.00
2022-10-05T08:42:33.966Z,9.50
2022-10-05T08:45:00.300Z,7.00
2022-10-05T08:47:26.623Z,7.00
2022-10-05T08:49:52.978Z,7.00
2022-10-05T08:52:19.322Z,7.00
2022-10-05T08:54:45.672Z,6.33
2022-10-05T08:57:12.890Z,6.75
2022-10-05T08:59:39.229Z,8.00
2022-10-05T09:02:05.696Z,10.00
2022-10-05T09:04:32.046Z,9.00
2022-10-05T09:06:58.408Z,8.00
2022-10-05T09:09:24.766Z,8.33
2022-10-05T09:11:51.138Z,7.00
2022-10-05T09:14:17.491Z,8.00
2022-10-05T09:16:44.744Z,8.00
2022-10-05T09:19:11.973Z,7.00
2022-10-05T09:21:38.304Z,8.00
2022-10-05T09:24:05.542Z,7.50
2022-10-05T09:26:32.751Z,7.25
2022-10-05T09:28:59.944Z,7.75
2022-10-05T09:31:26.364Z,8.00
2022-10-05T09:33:52.806Z,9.00
2022-10-05T09:36:19.138Z,8.50
2022-10-05T09:38:46.339Z,8.25
2022-10-05T09:41:12.671Z,7.00
2022-10-05T09:43:39.876Z,9.00
2022-10-05T09:46:06.480Z,7.00
2022-10-05T09:48:32.834Z,5.67
2022-10-05T09:50:59.235Z,6.67
2022-10-05T09:53:26.428Z,7.75
2022-10-05T09:55:52.748Z,8.67
2022-10-05T09:58:19.143Z,10.00
2022-10-05T10:00:51.532Z,6.25
2022-10-05T10:03:25.807Z,6.33
2022-10-05T10:05:52.182Z,6.67
2022-10-05T10:08:19.465Z,6.75
2022-10-05T10:10:45.795Z,6.00
2022-10-05T10:13:12.981Z,6.75
2022-10-05T10:15:39.355Z,6.00
2022-10-05T10:18:05.713Z,5.00
2022-10-05T10:20:32.911Z,6.00
2022-10-05T10:22:59.265Z,7.00
2022-10-05T10:25:25.666Z,7.00
2022-10-05T10:27:52.622Z,7.33
2022-10-05T10:30:19.005Z,7.00
2022-10-05T10:32:45.375Z,8.00
2022-10-05T10:35:11.741Z,9.00
2022-10-05T10:37:38.075Z,8.67
2022-10-05T10:40:04.422Z,7.00
2022-10-05T10:42:31.631Z,8.00
2022-10-05T10:44:57.950Z,7.33
2022-10-05T10:47:24.341Z,7.00
2022-10-05T10:49:50.693Z,9.00
2022-10-05T10:52:17.038Z,8.00
2022-10-05T10:54:43.367Z,7.67
2022-10-05T10:57:10.563Z,6.75
2022-10-05T10:59:36.892Z,7.00
2022-10-05T11:02:03.285Z,7.00
2022-10-05T11:04:30.574Z,6.50
2022-10-05T11:06:56.901Z,6.67
2022-10-05T11:09:23.252Z,8.33
2022-10-05T11:11:49.797Z,7.00
2022-10-05T11:14:17.338Z,7.00
2022-10-05T11:16:43.698Z,7.00
2022-10-05T11:19:10.052Z,6.33
2022-10-05T11:21:36.431Z,8.00
2022-10-05T11:24:02.774Z,6.00
2022-10-05T11:26:29.214Z,5.67
2022-10-05T11:28:55.566Z,6.67
2022-10-05T11:31:21.921Z,5.67
2022-10-05T11:33:48.379Z,5.67
2022-10-05T11:36:14.747Z,7.00
2022-10-05T11:38:41.098Z,6.00
2022-10-05T11:41:07.610Z,6.00
2022-10-05T11:43:33.931Z,6.00
2022-10-05T11:46:00.331Z,7.00
2022-10-05T11:48:26.694Z,6.00
2022-10-05T11:50:53.109Z,7.00
2022-10-05T11:53:19.441Z,5.00
2022-10-05T11:55:45.786Z,7.67
2022-10-05T11:58:13.013Z,5.75
2022-10-05T12:00:39.337Z,6.67
2022-10-05T12:03:05.793Z,6.33
2022-10-05T12:05:32.164Z,7.00
2022-10-05T12:07:58.576Z,7.00
2022-10-05T12:10:24.890Z,6.67
2022-10-05T12:12:51.212Z,6.33
2022-10-05T12:15:17.700Z,7.00
2022-10-05T12:17:44.058Z,8.00
2022-10-05T12:20:10.395Z,8.00
2022-10-05T12:22:36.770Z,10.00
2022-10-05T12:25:03.307Z,12.50
2022-10-05T12:27:29.713Z,13.50
2022-10-05T12:29:56.163Z,12.00
2022-10-05T12:32:22.709Z,18.50
2022-10-05T12:34:49.979Z,16.33
2022-10-05T12:37:18.278Z,12.60
2022-10-05T12:39:46.629Z,12.00
2022-10-05T12:42:13.048Z,9.50
2022-10-05T12:44:42.208Z,10.00
2022-10-05T12:47:08.643Z,13.00
2022-10-05T12:49:35.031Z,11.00
2022-10-05T12:52:01.455Z,10.00
2022-10-05T12:54:28.666Z,9.25
2022-10-05T12:56:55.110Z,8.00
2022-10-05T12:59:21.500Z,9.50
2022-10-05T13:01:47.935Z,8.00
2022-10-05T13:04:14.347Z,9.00
2022-10-05T13:06:40.690Z,6.00
2022-10-05T13:09:07.117Z,9.00
2022-10-05T13:11:33.481Z,8.33
2022-10-05T13:13:59.850Z,10.33
2022-10-05T13:16:26.205Z,5.33
2022-10-05T13:18:52.890Z,10.33
2022-10-05T13:21:20.110Z,8.00
2022-10-05T13:23:46.418Z,7.00
2022-10-05T13:26:13.057Z,8.67
2022-10-05T13:28:39.674Z,11.50
2022-10-05T13:31:06.198Z,12.00
2022-10-05T13:33:35.410Z,8.67
2022-10-05T13:36:01.841Z,10.00
2022-10-05T13:38:28.346Z,11.50
2022-10-05T13:40:57.515Z,10.50
2022-10-05T13:43:23.952Z,11.00
2022-10-05T13:45:52.778Z,9.00
2022-10-05T13:48:22.179Z,12.00
2022-10-05T13:50:49.401Z,10.50
2022-10-05T13:53:15.742Z,7.50
2022-10-05T13:55:42.154Z,9.00
2022-10-05T13:58:09.417Z,10.50
2022-10-05T14:00:38.588Z,11.33
2022-10-05T14:03:04.962Z,8.00
2022-10-05T14:05:32.208Z,11.00
2022-10-05T14:07:58.667Z,7.50
2022-10-05T14:10:25.063Z,10.00
2022-10-05T14:12:52.290Z,9.25
2022-10-05T14:15:18.684Z,10.00
2022-10-05T14:17:45.908Z,9.00
2022-10-05T14:20:13.136Z,7.50
2022-10-05T14:22:39.524Z,9.00
2022-10-05T14:25:05.951Z,11.50
2022-10-05T14:27:32.304Z,7.33
2022-10-05T14:29:58.794Z,7.50
2022-10-05T14:32:25.145Z,7.00
2022-10-05T14:34:51.448Z,3.00
2022-10-05T14:37:18.677Z,9.50
2022-10-05T14:39:45.906Z,10.25
2022-10-05T14:42:12.331Z,10.00
2022-10-05T14:44:39.548Z,7.75
2022-10-05T14:47:05.911Z,7.50
2022-10-05T14:49:32.325Z,12.50
2022-10-05T14:51:59.811Z,10.25
2022-10-05T14:54:26.310Z,11.00
2022-10-05T14:56:55.422Z,9.00
2022-10-05T14:59:23.755Z,10.80
2022-10-05T15:01:50.220Z,12.50
2022-10-05T15:04:16.665Z,12.00
2022-10-05T15:06:43.277Z,10.00
2022-10-05T15:09:17.272Z,11.00
2022-10-05T15:11:44.327Z,9.67
2022-10-05T15:14:10.754Z,13.50
2022-10-05T15:16:38.041Z,13.67
2022-10-05T15:19:05.303Z,13.33
2022-10-05T15:21:31.768Z,13.00
2022-10-05T15:23:58.208Z,11.50
2022-10-05T15:26:25.448Z,11.00
2022-10-05T15:28:51.780Z,8.00
2022-10-05T15:31:18.196Z,8.33
2022-10-05T15:33:44.690Z,6.00
2022-10-05T15:36:11.528Z,5.00
2022-10-05T15:38:37.951Z,6.00
2022-10-05T15:41:04.700Z,5.00
2022-10-05T15:43:31.176Z,4.67
2022-10-05T15:45:57.592Z,5.67
2022-10-05T15:48:24.437Z,5.33
2022-10-05T15:50:51.129Z,5.00
2022-10-05T15:53:17.480Z,4.00
2022-10-05T15:55:44.059Z,3.00
2022-10-05T15:58:10.464Z,5.00
2022-10-05T16:00:36.900Z,5.33
2022-10-05T16:03:03.267Z,5.33
2022-10-05T16:05:29.578Z,5.00
2022-10-05T16:07:55.949Z,4.67
2022-10-05T16:10:22.503Z,5.00
2022-10-05T16:12:49.037Z,4.00
2022-10-05T16:15:15.524Z,4.00
2022-10-05T16:17:42.137Z,4.00
2022-10-05T16:20:08.713Z,5.67
2022-10-05T16:22:36.406Z,3.33
2022-10-05T16:25:05.236Z,4.00
2022-10-05T16:27:31.655Z,3.67
2022-10-05T16:29:58.025Z,5.00
2022-10-05T16:32:24.372Z,5.33
2022-10-05T16:34:51.123Z,5.67
2022-10-05T16:37:17.506Z,4.67
2022-10-05T16:39:43.872Z,6.33
2022-10-05T16:42:11.175Z,6.50
2022-10-05T16:44:37.774Z,8.67
2022-10-05T16:47:07.210Z,16.67
2022-10-05T16:49:34.524Z,18.00
2022-10-05T16:52:01.267Z,10.50
2022-10-05T16:54:27.776Z,9.00
2022-10-05T16:56:56.161Z,8.00
2022-10-05T16:59:23.959Z,10.75
2022-10-05T17:01:50.611Z,8.00
2022-10-05T17:04:17.219Z,11.50
2022-10-05T17:06:43.866Z,11.50
2022-10-05T17:09:10.497Z,8.50
2022-10-05T17:11:36.992Z,10.00
2022-10-05T17:14:03.708Z,11.50
2022-10-05T17:16:30.498Z,12.00
2022-10-05T17:18:57.771Z,13.00
2022-10-05T17:21:26.092Z,11.60
2022-10-05T17:23:54.328Z,9.00
2022-10-05T17:26:21.534Z,9.50
2022-10-05T17:28:48.080Z,11.00
2022-10-05T17:31:15.330Z,8.50
2022-10-05T17:33:43.037Z,9.25
2022-10-05T17:36:10.619Z,8.00
2022-10-05T17:38:38.324Z,7.67
2022-10-05T17:41:04.969Z,7.00
2022-10-05T17:43:32.436Z,8.75
2022-10-05T17:45:58.959Z,6.00
2022-10-05T17:48:26.816Z,8.00
2022-10-05T17:50:54.699Z,10.25
2022-10-05T17:53:21.758Z,6.00
2022-10-05T17:55:48.399Z,6.00
2022-10-05T17:58:15.731Z,7.25
2022-10-05T18:00:42.366Z,7.00
2022-10-05T18:03:09.237Z,7.00
2022-10-05T18:05:35.942Z,7.00
2022-10-05T18:08:03.209Z,9.50
2022-10-05T18:10:29.733Z,8.67
2022-10-05T18:12:57.479Z,8.00
2022-10-05T18:15:24.179Z,6.00
2022-10-05T18:17:51.030Z,6.67
2022-10-05T18:20:18.522Z,6.00
2022-10-05T18:22:45.429Z,7.00
2022-10-05T18:25:12.163Z,6.33
2022-10-05T18:27:39.091Z,6.00
2022-10-05T18:30:05.756Z,6.00
2022-10-05T18:32:32.394Z,5.33
2022-10-05T18:35:02.005Z,7.00
2022-10-05T18:37:29.078Z,6.00
2022-10-05T18:39:56.099Z,5.00
2022-10-05T18:42:23.051Z,4.67
2022-10-05T18:44:50.059Z,6.33
2022-10-05T18:47:16.944Z,5.00
2022-10-05T18:49:43.823Z,5.00
2022-10-05T18:52:11.455Z,5.00
2022-10-05T18:54:38.085Z,5.33
2022-10-05T18:57:04.917Z,4.00
2022-10-05T18:59:31.554Z,5.33
2022-10-05T19:01:59.932Z,8.00
2022-10-05T19:04:30.403Z,14.57
2022-10-05T19:06:57.307Z,9.50
2022-10-05T19:09:26.944Z,8.67
2022-10-05T19:11:56.008Z,10.00
2022-10-05T19:14:23.031Z,13.50
2022-10-05T19:16:53.620Z,10.67
2022-10-05T19:19:27.210Z,8.67
2022-10-05T19:21:56.361Z,7.00
2022-10-05T19:24:23.104Z,7.00
2022-10-05T19:26:49.620Z,6.00
2022-10-05T19:29:16.561Z,5.00
2022-10-05T19:31:43.255Z,8.00
2022-10-05T19:34:10.038Z,16.00
2022-10-05T19:36:39.697Z,9.83
2022-10-05T19:39:07.058Z,8.00
2022-10-05T19:41:34.585Z,6.50
2022-10-05T19:44:01.962Z,6.75
2022-10-05T19:46:28.540Z,6.67
2022-10-05T19:48:55.382Z,6.33
2022-10-05T19:51:23.991Z,10.00
2022-10-05T19:53:50.477Z,10.00
2022-10-05T19:56:16.852Z,8.00
2022-10-05T19:58:45.157Z,15.60
2022-10-05T20:01:11.544Z,12.00
2022-10-05T20:03:39.791Z,10.20
2022-10-05T20:06:09.125Z,9.17
2022-10-05T20:08:38.324Z,9.67
2022-10-05T20:11:07.492Z,9.50
2022-10-05T20:13:35.006Z,6.75
2022-10-05T20:16:02.240Z,6.25
2022-10-05T20:18:28.937Z,5.00
2022-10-05T20:20:55.498Z,6.00
2022-10-05T20:23:21.832Z,5.00
2022-10-05T20:25:48.186Z,7.00
2022-10-05T20:28:14.553Z,7.50
2022-10-05T20:30:40.936Z,6.00
2022-10-05T20:33:07.257Z,6.67
2022-10-05T20:35:33.590Z,5.00
2022-10-05T20:37:59.951Z,5.00
2022-10-05T20:40:26.374Z,7.00
2022-10-05T20:42:52.704Z,5.00
2022-10-05T20:45:19.932Z,6.00
2022-10-05T20:47:46.255Z,5.00
2022-10-05T20:50:13.434Z,6.50
2022-10-05T20:52:39.792Z,5.67
2022-10-05T20:55:06.127Z,6.00
2022-10-05T20:57:32.522Z,4.00
2022-10-05T20:59:58.836Z,4.33
2022-10-05T21:02:25.155Z,5.00
2022-10-05T21:04:51.594Z,6.00
2022-10-05T21:07:18.828Z,5.25
2022-10-05T21:09:45.213Z,5.00
2022-10-05T21:12:11.559Z,5.00
2022-10-05T21:14:37.931Z,5.67
2022-10-05T21:17:04.319Z,6.00
2022-10-05T21:19:30.635Z,6.00
2022-10-05T21:21:56.989Z,6.00
2022-10-05T21:24:23.301Z,5.33
2022-10-05T21:26:49.643Z,5.33
2022-10-05T21:29:15.974Z,6.00
2022-10-05T21:31:42.370Z,5.00
2022-10-05T21:34:09.612Z,5.00
2022-10-05T21:36:35.971Z,4.00
2022-10-05T21:39:03.151Z,6.00
2022-10-05T21:41:29.526Z,6.00
2022-10-05T21:43:55.855Z,5.00
2022-10-05T21:46:22.205Z,4.00
2022-10-05T21:48:48.533Z,4.33
2022-10-05T21:51:15.717Z,5.75
2022-10-05T21:53:42.052Z,5.00
2022-10-05T21:56:09.247Z,4.50
2022-10-05T21:58:35.561Z,4.00
2022-10-05T22:01:02.006Z,6.00
2022-10-05T22:03:28.450Z,4.00
2022-10-05T22:05:54.837Z,4.33
2022-10-05T22:08:21.198Z,4.67
2022-10-05T22:10:47.532Z,4.67
2022-10-05T22:13:13.941Z,6.00
2022-10-05T22:15:40.294Z,7.00
2022-10-05T22:18:06.674Z,4.67
2022-10-05T22:20:33.005Z,5.00
2022-10-05T22:22:59.300Z,4.67
2022-10-05T22:25:25.651Z,6.00
2022-10-05T22:27:51.973Z,5.33
2022-10-05T22:30:18.302Z,3.33
2022-10-05T22:32:44.625Z,5.00
2022-10-05T22:35:12.061Z,3.75
2022-10-05T22:37:38.425Z,5.00
2022-10-05T22:40:04.796Z,4.00
2022-10-05T22:42:31.096Z,5.67
2022-10-05T22:44:57.473Z,4.00
2022-10-05T22:47:23.809Z,5.67
2022-10-05T22:49:50.157Z,5.00
2022-10-05T22:52:16.498Z,5.00
2022-10-05T22:54:42.806Z,5.67
2022-10-05T22:57:10.051Z,5.25
2022-10-05T22:59:36.358Z,5.00
2022-10-05T23:02:02.836Z,5.00
2022-10-05T23:04:29.271Z,5.00
2022-10-05T23:06:55.590Z,4.33
2022-10-05T23:09:21.926Z,5.33
2022-10-05T23:11:48.263Z,5.00
2022-10-05T23:14:15.487Z,5.25
2022-10-05T23:16:41.861Z,4.00
2022-10-05T23:19:08.224Z,4.33
2022-10-05T23:21:34.763Z,5.00
2022-10-05T23:24:01.097Z,4.67
2022-10-05T23:26:27.437Z,5.00
2022-10-05T23:28:53.759Z,5.00
2022-10-05T23:31:20.113Z,5.00
2022-10-05T23:33:46.450Z,4.67
2022-10-05T23:36:13.648Z,5.00
2022-10-05T23:38:40.027Z,4.00
2022-10-05T23:41:06.597Z,4.33
2022-10-05T23:43:32.995Z,4.33
2022-10-05T23:45:59.375Z,4.33
2022-10-05T23:48:26.154Z,3.00
2022-10-05T23:50:52.681Z,3.33
2022-10-05T23:53:19.012Z,6.00
2022-10-05T23:55:45.412Z,4.00
2022-10-05T23:58:12.593Z,3.50
